Time;durP1;ratioP1;P1;durP2;ratioP2;P2;SDS_P1;SDS_P2;PMS_P1;PMS_P2;Temp;Humidity;BMP_temperature;BMP_pressure;BME280_temperature;BME280_humidity;BME280_pressure;Samples;Min_cycle;Max_cycle;Signal;HPM_P1;HPM_P2
2023/05/03 00:01:07;;;;;;;;;;;;;;;19.81;40.98;102958.28;5130966;28;19918;-71
2023/05/03 00:03:33;;;;;;;;;;;;;;;19.79;40.77;102957.53;5130129;28;19919;-71
2023/05/03 00:06:07;;;;;;;;;;;;;;;19.78;40.89;102950.44;5129824;28;19916;-71
2023/05/03 00:08:33;;;;;;;;;;;;;;;19.77;40.85;102953.28;5134120;28;19916;-71
2023/05/03 00:10:58;;;;;;;;;;;;;;;19.76;40.75;102951.56;5129521;28;20026;-71
2023/05/03 00:13:23;;;;;;;;;;;;;;;19.74;40.70;102951.66;5119576;28;19967;-71
2023/05/03 00:15:49;;;;;;;;;;;;;;;19.72;40.94;102950.94;5129419;28;20388;-71
2023/05/03 00:18:14;;;;;;;;;;;;;;;19.72;40.82;102954.50;5130291;28;20296;-71
2023/05/03 00:20:39;;;;;;;;;;;;;;;19.71;40.67;102958.19;5131892;28;19912;-71
2023/05/03 00:23:05;;;;;;;;;;;;;;;19.70;40.66;102963.69;5128454;28;20354;-71
2023/05/03 00:25:31;;;;;;;;;;;;;;;19.67;40.83;102962.13;5131479;28;19922;-71
2023/05/03 00:27:56;;;;;;;;;;;;;;;19.66;40.63;102959.53;5111501;28;19983;-71
2023/05/03 00:30:21;;;;;;;;;;;;;;;19.65;40.59;102958.66;5130769;28;19955;-71
2023/05/03 00:32:46;;;;;;;;;;;;;;;19.64;40.58;102953.41;5133465;28;19919;-71
2023/05/03 00:35:11;;;;;;;;;;;;;;;19.63;40.67;102954.41;5132802;28;19912;-71
2023/05/03 00:37:37;;;;;;;;;;;;;;;19.62;40.63;102955.34;5111750;28;19920;-72
2023/05/03 00:40:03;;;;;;;;;;;;;;;19.61;40.92;102953.66;5135732;27;19957;-71
2023/05/03 00:42:28;;;;;;;;;;;;;;;19.59;40.74;102951.06;5132227;28;20006;-71
2023/05/03 00:44:54;;;;;;;;;;;;;;;19.59;40.68;102950.19;5129020;28;20383;-71
2023/05/03 00:47:19;;;;;;;;;;;;;;;19.57;40.84;102950.28;5132516;28;19984;-71
2023/05/03 00:49:44;;;;;;;;;;;;;;;19.56;40.79;102963.94;5129847;27;19915;-71
2023/05/03 00:52:09;;;;;;;;;;;;;;;19.54;40.53;102958.66;5128926;28;19967;-71
2023/05/03 00:54:35;;;;;;;;;;;;;;;19.54;40.98;102955.97;5128130;28;19981;-71
2023/05/03 00:57:00;;;;;;;;;;;;;;;19.52;40.67;102952.50;5134960;27;19919;-71
2023/05/03 00:59:26;;;;;;;;;;;;;;;19.51;40.88;102956.19;5127077;28;20004;-71
2023/05/03 01:01:51;;;;;;;;;;;;;;;19.49;40.72;102952.75;5113900;27;20016;-71
2023/05/03 01:04:17;;;;;;;;;;;;;;;19.48;40.60;102949.19;5134165;27;19912;-71
2023/05/03 01:07:02;;;;;;;;;;;;;;;19.47;40.87;102954.72;5137130;27;19918;-71
2023/05/03 01:09:38;;;;;;;;;;;;;;;19.46;40.69;102948.47;5119521;27;19976;-71
2023/05/03 01:12:03;;;;;;;;;;;;;;;19.45;40.71;102944.06;5126333;27;19975;-71
2023/05/03 01:14:34;;;;;;;;;;;;;;;19.43;40.66;102946.03;5136737;27;19927;-71
2023/05/03 01:17:20;;;;;;;;;;;;;;;19.42;40.81;102938.91;5131630;27;19933;-71
2023/05/03 01:19:50;;;;;;;;;;;;;;;19.40;40.51;102948.94;5134945;27;19918;-71
2023/05/03 01:22:16;;;;;;;;;;;;;;;19.39;40.70;102947.25;5136200;27;19927;-71
2023/05/03 01:24:41;;;;;;;;;;;;;;;19.38;40.75;102940.13;5134010;27;20031;-71
2023/05/03 01:27:08;;;;;;;;;;;;;;;19.37;40.53;102949.22;5126384;27;20281;-71
2023/05/03 01:29:33;;;;;;;;;;;;;;;19.36;40.42;102947.47;5137997;27;19916;-71
2023/05/03 01:31:59;;;;;;;;;;;;;;;19.35;40.64;102953.00;5132370;27;19918;-71
2023/05/03 01:34:31;;;;;;;;;;;;;;;19.34;40.79;102954.00;5119064;27;19915;-71
2023/05/03 01:36:57;;;;;;;;;;;;;;;19.33;40.62;102957.69;5125104;27;19947;-71
2023/05/03 01:39:25;;;;;;;;;;;;;;;19.30;40.63;102958.75;5114083;27;20001;-71
2023/05/03 01:41:50;;;;;;;;;;;;;;;19.30;40.57;102963.31;5124822;27;19912;-71
2023/05/03 01:44:15;;;;;;;;;;;;;;;19.29;40.81;102965.16;5113503;27;19919;-71
2023/05/03 01:46:41;;;;;;;;;;;;;;;19.28;40.70;102959.84;5132905;27;19937;-71
2023/05/03 01:49:07;;;;;;;;;;;;;;;19.27;40.91;102966.22;5112621;27;19916;-71
2023/05/03 01:51:32;;;;;;;;;;;;;;;19.25;40.47;102966.38;5135565;27;19923;-71
2023/05/03 01:53:57;;;;;;;;;;;;;;;19.25;40.58;102971.75;5134934;27;19916;-71
2023/05/03 01:56:23;;;;;;;;;;;;;;;19.23;40.65;102962.91;5133405;27;19918;-71
2023/05/03 01:58:48;;;;;;;;;;;;;;;19.22;40.71;102966.59;5133063;27;20002;-71
2023/05/03 02:01:13;;;;;;;;;;;;;;;19.21;40.64;102965.75;5135022;27;20376;-71
2023/05/03 02:03:38;;;;;;;;;;;;;;;19.19;40.69;102967.69;5119198;27;19915;-71
2023/05/03 02:06:03;;;;;;;;;;;;;;;19.19;40.55;102962.28;5130814;27;19966;-71
2023/05/03 02:08:28;;;;;;;;;;;;;;;19.18;40.44;102959.72;5137371;27;19927;-71
2023/05/03 02:10:54;;;;;;;;;;;;;;;19.16;40.27;102962.56;5131123;27;19916;-72
2023/05/03 02:13:19;;;;;;;;;;;;;;;19.15;40.88;102950.03;5131030;27;19986;-72
2023/05/03 02:15:44;;;;;;;;;;;;;;;19.14;40.51;102951.03;5133597;27;20311;-72
2023/05/03 02:18:09;;;;;;;;;;;;;;;19.13;40.71;102943.06;5131745;27;19915;-72
2023/05/03 02:20:36;;;;;;;;;;;;;;;19.13;40.66;102951.16;5129967;27;19915;-71
2023/05/03 02:23:02;;;;;;;;;;;;;;;19.11;40.78;102945.84;5131341;27;20177;-71
2023/05/03 02:25:27;;;;;;;;;;;;;;;19.10;40.61;102941.44;5133043;27;19959;-71
2023/05/03 02:27:52;;;;;;;;;;;;;;;19.10;40.41;102948.69;5131024;27;19975;-71
2023/05/03 02:30:18;;;;;;;;;;;;;;;19.08;40.62;102940.72;5119298;27;19979;-72
2023/05/03 02:32:43;;;;;;;;;;;;;;;19.07;40.57;102944.38;5131162;27;19912;-71
2023/05/03 02:35:08;;;;;;;;;;;;;;;19.05;40.58;102943.66;5135829;27;19915;-71
2023/05/03 02:37:33;;;;;;;;;;;;;;;19.04;40.44;102941.94;5133614;27;19912;-71
2023/05/03 02:39:58;;;;;;;;;;;;;;;19.03;40.61;102933.97;5134219;27;19919;-71
2023/05/03 02:42:24;;;;;;;;;;;;;;;19.02;40.64;102935.81;5134282;27;19916;-71
2023/05/03 02:44:49;;;;;;;;;;;;;;;19.02;40.60;102935.81;5132437;27;19912;-71
2023/05/03 02:47:15;;;;;;;;;;;;;;;19.00;40.44;102935.06;5128854;27;19912;-71
2023/05/03 02:49:40;;;;;;;;;;;;;;;18.99;40.60;102925.28;5133940;27;19950;-71
2023/05/03 02:52:05;;;;;;;;;;;;;;;18.97;40.31;102925.38;5135318;27;19950;-71
2023/05/03 02:54:30;;;;;;;;;;;;;;;18.96;40.43;102918.28;5131967;27;19922;-71
2023/05/03 02:56:55;;;;;;;;;;;;;;;18.95;40.53;102921.97;5118861;27;19915;-71
2023/05/03 02:59:20;;;;;;;;;;;;;;;18.93;40.75;102917.66;5124189;28;19915;-71
2023/05/03 03:01:46;;;;;;;;;;;;;;;18.92;40.59;102916.81;5124643;27;19968;-71
2023/05/03 03:04:11;;;;;;;;;;;;;;;18.91;40.50;102912.41;5135290;27;19930;-71
2023/05/03 03:06:36;;;;;;;;;;;;;;;18.90;40.40;102918.78;5131034;27;19911;-71
2023/05/03 03:09:01;;;;;;;;;;;;;;;18.90;40.44;102917.88;5131403;27;19916;-71
2023/05/03 03:11:26;;;;;;;;;;;;;;;18.88;40.37;102920.72;5132226;27;19998;-71
2023/05/03 03:13:51;;;;;;;;;;;;;;;18.87;40.53;102918.16;5129736;27;19939;-71
2023/05/03 03:16:16;;;;;;;;;;;;;;;18.86;40.59;102914.59;5131304;27;19920;-71
2023/05/03 03:18:42;;;;;;;;;;;;;;;18.85;40.60;102910.16;5133706;27;19912;-71
2023/05/03 03:21:08;;;;;;;;;;;;;;;18.84;40.48;102900.38;5127581;27;19923;-71
2023/05/03 03:23:33;;;;;;;;;;;;;;;18.84;40.40;102900.38;5117067;27;19935;-71
2023/05/03 03:25:58;;;;;;;;;;;;;;;18.83;40.57;102893.28;5133925;27;19912;-71
2023/05/03 03:28:23;;;;;;;;;;;;;;;18.82;40.47;102899.66;5134637;27;20676;-71
2023/05/03 03:30:48;;;;;;;;;;;;;;;18.80;40.67;102893.50;5138003;27;20504;-71
2023/05/03 03:33:13;;;;;;;;;;;;;;;18.79;40.46;102902.56;5130296;27;20283;-71
2023/05/03 03:35:39;;;;;;;;;;;;;;;18.79;40.38;102909.81;5132484;27;19939;-71
2023/05/03 03:38:04;;;;;;;;;;;;;;;18.78;40.51;102908.09;5131911;27;19915;-71
2023/05/03 03:40:29;;;;;;;;;;;;;;;18.76;40.52;102908.19;5113393;28;19918;-71
2023/05/03 03:42:54;;;;;;;;;;;;;;;18.76;40.29;102913.56;5129995;27;19911;-71
2023/05/03 03:45:19;;;;;;;;;;;;;;;18.75;40.48;102913.72;5131891;28;20280;-71
2023/05/03 03:47:45;;;;;;;;;;;;;;;18.73;40.30;102917.38;5129317;28;19947;-71
2023/05/03 03:50:10;;;;;;;;;;;;;;;18.72;40.56;102921.03;5134737;27;19923;-71
2023/05/03 03:52:35;;;;;;;;;;;;;;;18.72;40.52;102925.56;5134946;27;19912;-71
2023/05/03 03:55:00;;;;;;;;;;;;;;;18.70;40.50;102924.84;5110699;28;19923;-71
2023/05/03 03:57:28;;;;;;;;;;;;;;;18.69;40.43;102924.00;5140233;28;20005;-71
2023/05/03 03:59:54;;;;;;;;;;;;;;;18.68;40.41;102924.91;5131360;28;19923;-72
2023/05/03 04:02:20;;;;;;;;;;;;;;;18.68;40.43;102924.06;5129065;28;19919;-72
2023/05/03 04:04:45;;;;;;;;;;;;;;;18.67;40.54;102928.59;5132001;28;19918;-72
2023/05/03 04:07:10;;;;;;;;;;;;;;;18.66;40.20;102931.41;5130395;28;19916;-72
2023/05/03 04:09:35;;;;;;;;;;;;;;;18.66;40.34;102926.03;5130052;28;20183;-72
2023/05/03 04:12:02;;;;;;;;;;;;;;;18.65;40.32;102929.69;5130435;28;19915;-72
2023/05/03 04:14:27;;;;;;;;;;;;;;;18.64;40.45;102934.22;5130812;28;19927;-72
2023/05/03 04:16:52;;;;;;;;;;;;;;;18.64;40.30;102936.91;5128964;28;19912;-72
2023/05/03 04:19:17;;;;;;;;;;;;;;;18.63;40.12;102943.28;5134426;28;20364;-72
2023/05/03 04:21:43;;;;;;;;;;;;;;;18.64;40.56;102944.97;5131302;28;19916;-73
2023/05/03 04:24:08;;;;;;;;;;;;;;;18.64;40.32;102949.50;5134007;28;19923;-73
2023/05/03 04:26:34;;;;;;;;;;;;;;;18.63;40.22;102945.97;5133590;28;19939;-73
2023/05/03 04:29:02;;;;;;;;;;;;;;;18.63;40.53;102956.75;5129160;28;20302;-74
2023/05/03 04:31:28;;;;;;;;;;;;;;;18.64;40.58;102960.28;5138055;27;19947;-71
2023/05/03 04:33:53;;;;;;;;;;;;;;;18.64;40.86;102963.84;5134292;27;19911;-70
2023/05/03 04:36:24;;;;;;;;;;;;;;;18.66;40.79;102969.13;5133855;27;19922;-70
2023/05/03 04:38:49;;;;;;;;;;;;;;;18.66;40.84;102966.44;5133228;27;19923;-70
2023/05/03 04:41:14;;;;;;;;;;;;;;;18.67;40.93;102965.47;5135859;27;19919;-69
2023/05/03 04:43:39;;;;;;;;;;;;;;;18.68;40.76;102969.84;5120143;28;19970;-70
2023/05/03 04:46:04;;;;;;;;;;;;;;;18.67;40.93;102966.31;5136577;27;20431;-69
2023/05/03 04:48:30;;;;;;;;;;;;;;;18.68;40.78;102968.03;5132945;27;19915;-69
2023/05/03 04:50:56;;;;;;;;;;;;;;;18.69;41.14;102971.56;5141761;27;19926;-71
2023/05/03 04:53:21;;;;;;;;;;;;;;;18.70;41.06;102976.03;5136061;27;19923;-70
2023/05/03 04:55:46;;;;;;;;;;;;;;;18.71;40.94;102981.31;5134153;27;19989;-70
2023/05/03 04:58:11;;;;;;;;;;;;;;;18.72;40.95;102983.00;5139725;27;19916;-70
2023/05/03 05:00:37;;;;;;;;;;;;;;;18.73;40.96;102984.75;5117573;27;19915;-75
2023/05/03 05:03:02;;;;;;;;;;;;;;;18.75;41.21;102987.31;5133655;27;19979;-69
2023/05/03 05:05:27;;;;;;;;;;;;;;;18.76;40.86;102994.44;5115564;28;19958;-69
2023/05/03 05:07:52;;;;;;;;;;;;;;;18.76;40.86;102994.44;5132064;27;19954;-70
2023/05/03 05:10:17;;;;;;;;;;;;;;;18.77;40.88;102992.59;5134835;27;19919;-71
2023/05/03 05:12:43;;;;;;;;;;;;;;;18.79;40.98;102996.91;5135992;27;19957;-71
2023/05/03 05:15:08;;;;;;;;;;;;;;;18.80;40.87;102995.06;5134118;27;19926;-71
2023/05/03 05:17:34;;;;;;;;;;;;;;;18.81;41.03;103002.16;5135799;27;19912;-69
2023/05/03 05:19:59;;;;;;;;;;;;;;;18.83;41.07;103008.31;5137711;27;19915;-70
2023/05/03 05:22:24;;;;;;;;;;;;;;;18.84;40.81;103001.94;5134111;27;19919;-69
2023/05/03 05:24:50;;;;;;;;;;;;;;;18.85;40.74;103007.19;5141264;27;19923;-69
2023/05/03 05:27:15;;;;;;;;;;;;;;;18.86;40.85;103005.34;5132640;27;19973;-69
2023/05/03 05:29:40;;;;;;;;;;;;;;;18.87;40.90;103007.09;5116286;27;19999;-69
2023/05/03 05:32:05;;;;;;;;;;;;;;;18.89;40.76;103014.06;5136114;27;19916;-69
2023/05/03 05:34:31;;;;;;;;;;;;;;;18.90;40.93;103014.91;5131321;27;19912;-69
2023/05/03 05:36:56;;;;;;;;;;;;;;;18.91;41.01;103011.28;5134138;27;19915;-69
2023/05/03 05:39:22;;;;;;;;;;;;;;;18.92;40.70;103012.97;5116989;27;20025;-69
2023/05/03 05:41:47;;;;;;;;;;;;;;;18.93;40.69;103012.84;5134391;27;19918;-69
2023/05/03 05:44:12;;;;;;;;;;;;;;;18.96;40.83;103014.47;5113767;27;20014;-68
2023/05/03 05:46:37;;;;;;;;;;;;;;;18.97;40.58;103011.66;5117605;27;19934;-69
2023/05/03 05:49:02;;;;;;;;;;;;;;;18.98;40.73;103016.06;5131229;27;20030;-69
2023/05/03 05:51:29;;;;;;;;;;;;;;;19.01;40.58;103016.81;5140214;27;19915;-69
2023/05/03 05:53:54;;;;;;;;;;;;;;;19.02;40.78;103010.44;5139840;27;20019;-69
2023/05/03 05:56:20;;;;;;;;;;;;;;;19.05;40.53;103015.59;5135136;27;19912;-69
2023/05/03 05:58:45;;;;;;;;;;;;;;;19.07;40.76;103017.19;5133672;27;19936;-70
2023/05/03 06:01:11;;;;;;;;;;;;;;;19.08;40.73;103016.22;5130281;27;19920;-73
2023/05/03 06:03:36;;;;;;;;;;;;;;;19.09;40.76;103014.38;5132438;27;20269;-71
2023/05/03 06:06:02;;;;;;;;;;;;;;;19.11;40.56;103015.09;5132828;27;19965;-73
2023/05/03 06:08:27;;;;;;;;;;;;;;;19.12;40.73;103023.09;5133481;27;19926;-73
2023/05/03 06:10:52;;;;;;;;;;;;;;;19.14;40.29;103025.66;5115002;27;20563;-73
2023/05/03 06:13:18;;;;;;;;;;;;;;;19.15;40.39;103028.22;5131389;27;19916;-73
2023/05/03 06:15:43;;;;;;;;;;;;;;;19.17;40.25;103034.38;5133210;27;19927;-73
2023/05/03 06:18:08;;;;;;;;;;;;;;;19.19;40.17;103026.16;5114595;27;19983;-72
2023/05/03 06:20:33;;;;;;;;;;;;;;;19.21;39.96;103016.13;5135587;27;19916;-73
2023/05/03 06:22:59;;;;;;;;;;;;;;;19.22;40.13;103025.94;5111779;27;19916;-73
2023/05/03 06:25:24;;;;;;;;;;;;;;;19.23;39.96;103020.41;5134202;27;20369;-73
2023/05/03 06:27:49;;;;;;;;;;;;;;;19.25;40.16;103019.47;5131392;27;19922;-72
2023/05/03 06:30:15;;;;;;;;;;;;;;;19.25;39.92;103014.06;5130063;27;19924;-72
2023/05/03 06:32:40;;;;;;;;;;;;;;;19.27;39.69;103009.38;5130446;27;19919;-72
2023/05/03 06:35:06;;;;;;;;;;;;;;;19.28;39.39;103009.25;5119877;27;19916;-72
2023/05/03 06:37:31;;;;;;;;;;;;;;;19.29;39.36;103005.59;5129550;27;20376;-72
2023/05/03 06:39:56;;;;;;;;;;;;;;;19.31;39.64;103008.16;5137453;27;20707;-72
2023/05/03 06:42:22;;;;;;;;;;;;;;;19.32;39.39;103005.34;5115748;28;19919;-72
2023/05/03 06:44:47;;;;;;;;;;;;;;;19.34;39.36;103005.25;5109287;27;19938;-73
2023/05/03 06:47:13;;;;;;;;;;;;;;;19.35;39.06;103005.13;5136104;27;19987;-72
2023/05/03 06:49:38;;;;;;;;;;;;;;;19.37;39.30;103003.16;5131414;27;19916;-72
2023/05/03 06:52:03;;;;;;;;;;;;;;;19.38;38.85;102996.78;5134869;27;19964;-73
2023/05/03 06:54:29;;;;;;;;;;;;;;;19.40;38.79;103002.03;5132382;27;20003;-73
2023/05/03 06:56:54;;;;;;;;;;;;;;;19.42;38.94;102990.16;5134639;27;19922;-74
2023/05/03 06:59:19;;;;;;;;;;;;;;;19.43;39.05;102997.28;5134710;27;19919;-74
2023/05/03 07:01:45;;;;;;;;;;;;;;;19.45;38.97;103006.13;5129184;27;19919;-74
2023/05/03 07:04:11;;;;;;;;;;;;;;;19.47;39.03;103009.53;5129252;27;19923;-73
2023/05/03 07:06:36;;;;;;;;;;;;;;;19.49;38.81;103006.72;5130779;27;19912;-74
2023/05/03 07:09:01;;;;;;;;;;;;;;;19.51;38.58;103004.75;5133101;27;19949;-74
2023/05/03 07:11:26;;;;;;;;;;;;;;;19.53;38.55;103002.78;5116123;27;19915;-74
2023/05/03 07:13:52;;;;;;;;;;;;;;;19.55;38.69;103003.53;5134638;27;19912;-74
2023/05/03 07:16:17;;;;;;;;;;;;;;;19.57;38.54;103000.72;5112730;27;19920;-74
2023/05/03 07:18:43;;;;;;;;;;;;;;;19.59;38.38;103002.31;5130832;27;19975;-74
2023/05/03 07:21:08;;;;;;;;;;;;;;;19.60;38.67;102993.22;5134500;27;19911;-73
2023/05/03 07:23:36;;;;;;;;;;;;;;;19.61;38.26;102997.69;5131191;27;19921;-74
2023/05/03 07:26:01;;;;;;;;;;;;;;;19.65;38.28;103003.69;5133637;27;20146;-74
2023/05/03 07:28:26;;;;;;;;;;;;;;;19.66;38.45;102989.22;5129735;27;19965;-74
2023/05/03 07:30:51;;;;;;;;;;;;;;;19.67;38.35;102986.41;5134283;27;19916;-74
2023/05/03 07:33:17;;;;;;;;;;;;;;;19.70;38.16;102991.53;5107088;27;19912;-74
2023/05/03 07:35:44;;;;;;;;;;;;;;;19.72;38.22;102986.88;5132066;27;19916;-74
2023/05/03 07:38:09;;;;;;;;;;;;;;;19.75;38.23;102980.38;5135370;27;20015;-75
2023/05/03 07:40:34;;;;;;;;;;;;;;;19.77;38.48;102975.72;5134681;27;19911;-71
2023/05/03 07:42:59;;;;;;;;;;;;;;;19.80;38.46;102975.47;5131987;27;20861;-71
2023/05/03 07:45:25;;;;;;;;;;;;;;;19.82;38.45;102973.50;5132336;27;19918;-71
2023/05/03 07:47:51;;;;;;;;;;;;;;;19.85;38.29;102973.25;5135802;27;19912;-72
2023/05/03 07:50:16;;;;;;;;;;;;;;;19.88;38.35;102972.13;5107733;27;20003;-74
2023/05/03 07:52:42;;;;;;;;;;;;;;;19.91;38.41;102967.34;5121254;28;19922;-75
2023/05/03 07:55:07;;;;;;;;;;;;;;;19.93;38.13;102964.53;5111580;28;19951;-74
2023/05/03 07:57:32;;;;;;;;;;;;;;;19.96;38.25;102970.56;5132602;28;20003;-75
2023/05/03 07:59:57;;;;;;;;;;;;;;;19.97;38.17;102958.75;5116323;28;19912;-75
2023/05/03 08:02:23;;;;;;;;;;;;;;;20.00;37.99;102957.63;5127321;27;19922;-72
2023/05/03 08:04:48;;;;;;;;;;;;;;;20.03;38.33;102959.22;5117833;28;20092;-72
2023/05/03 08:07:13;;;;;;;;;;;;;;;20.06;38.23;102956.28;5115950;28;19916;-73
2023/05/03 08:09:38;;;;;;;;;;;;;;;20.07;38.31;102950.75;5122028;27;19926;-73
2023/05/03 08:12:04;;;;;;;;;;;;;;;20.10;38.28;102946.94;5134143;27;19916;-73
2023/05/03 08:14:29;;;;;;;;;;;;;;;20.12;38.09;102943.13;5138774;27;19983;-72
2023/05/03 08:16:54;;;;;;;;;;;;;;;20.15;38.09;102944.72;5132819;27;20363;-74
2023/05/03 08:19:20;;;;;;;;;;;;;;;20.17;38.18;102950.84;5135688;27;19939;-73
2023/05/03 08:21:45;;;;;;;;;;;;;;;20.18;38.08;102942.63;5136443;27;19990;-74
2023/05/03 08:24:12;;;;;;;;;;;;;;;20.21;38.53;102939.66;5119956;27;19919;-73
2023/05/03 08:26:37;;;;;;;;;;;;;;;20.23;38.11;102945.78;5133952;27;19911;-73
2023/05/03 08:29:03;;;;;;;;;;;;;;;20.26;38.41;102943.81;5110720;27;19923;-73
2023/05/03 08:31:30;;;;;;;;;;;;;;;20.28;38.10;102942.72;5132897;27;19912;-72
2023/05/03 08:33:55;;;;;;;;;;;;;;;20.30;38.13;102946.13;5129198;27;19912;-73
2023/05/03 08:36:20;;;;;;;;;;;;;;;20.33;38.32;102950.44;5135204;27;20387;-73
2023/05/03 08:38:45;;;;;;;;;;;;;;;20.34;38.30;102947.59;5132060;27;19938;-73
2023/05/03 08:41:29;;;;;;;;;;;;;;;20.36;38.30;102948.31;5120031;27;20181;-73
2023/05/03 08:43:55;;;;;;;;;;;;;;;20.38;38.09;102951.75;5135320;27;19958;-73
2023/05/03 08:46:20;;;;;;;;;;;;;;;20.40;38.41;102955.19;5114285;27;19916;-73
2023/05/03 08:48:46;;;;;;;;;;;;;;;20.42;38.14;102952.34;5137256;27;19920;-74
2023/05/03 08:51:11;;;;;;;;;;;;;;;20.43;38.03;102944.13;5111655;27;19920;-74
2023/05/03 08:53:37;;;;;;;;;;;;;;;20.45;38.42;102942.16;5114997;27;20000;-73
2023/05/03 08:56:05;;;;;;;;;;;;;;;20.47;38.34;102945.59;5134059;27;19915;-74
2023/05/03 08:58:33;;;;;;;;;;;;;;;20.49;38.36;102948.19;5133539;27;19938;-73
2023/05/03 09:01:02;;;;;;;;;;;;;;;20.51;38.11;102948.91;5133215;27;19919;-73
2023/05/03 09:03:27;;;;;;;;;;;;;;;20.54;38.09;102934.28;5137309;27;19933;-74
2023/05/03 09:05:53;;;;;;;;;;;;;;;20.56;38.16;102935.00;5134101;27;19916;-72
2023/05/03 09:08:21;;;;;;;;;;;;;;;20.57;38.17;102936.72;5138683;27;19915;-72
2023/05/03 09:10:46;;;;;;;;;;;;;;;20.59;38.45;102929.34;5119528;27;19919;-72
2023/05/03 09:13:12;;;;;;;;;;;;;;;20.61;38.41;102925.53;5132213;27;19911;-71
2023/05/03 09:15:37;;;;;;;;;;;;;;;20.63;38.15;102925.38;5136942;27;19930;-71
2023/05/03 09:18:05;;;;;;;;;;;;;;;20.64;38.09;102933.34;5130389;27;19998;-70
2023/05/03 09:20:34;;;;;;;;;;;;;;;20.66;38.11;102941.34;5133349;27;19965;-70
2023/05/03 09:23:00;;;;;;;;;;;;;;;20.69;38.22;102951.91;5133637;27;19954;-71
2023/05/03 09:25:25;;;;;;;;;;;;;;;20.71;38.01;102949.91;5128307;27;19916;-72
2023/05/03 09:28:00;;;;;;;;;;;;;;;20.74;37.87;102949.66;5113535;27;19990;-71
2023/05/03 09:30:26;;;;;;;;;;;;;;;20.75;38.28;102956.78;5119724;27;20280;-71
2023/05/03 09:32:52;;;;;;;;;;;;;;;20.75;37.89;102951.38;5132630;27;19935;-71
2023/05/03 09:35:17;;;;;;;;;;;;;;;20.78;37.97;102952.97;5133266;27;19951;-71
2023/05/03 09:37:42;;;;;;;;;;;;;;;20.30;38.14;102869.63;5138881;27;19918;-71
2023/05/03 09:40:09;;;;;;;;;;;;;;;20.80;37.85;102951.81;5130906;27;19950;-71
2023/05/03 09:42:34;;;;;;;;;;;;;;;20.82;38.15;102951.72;5138784;27;19919;-71
2023/05/03 09:44:59;;;;;;;;;;;;;;;20.82;37.78;102949.00;5131524;27;19912;-71
2023/05/03 09:47:24;;;;;;;;;;;;;;;20.84;37.70;102941.59;5125621;27;19923;-71
2023/05/03 09:49:50;;;;;;;;;;;;;;;20.85;37.94;102941.47;5138433;27;19973;-71
2023/05/03 09:52:15;;;;;;;;;;;;;;;20.87;37.71;102942.22;5114168;27;19947;-71
2023/05/03 09:54:41;;;;;;;;;;;;;;;20.90;38.03;102932.97;5132067;27;19964;-71
2023/05/03 09:57:06;;;;;;;;;;;;;;;20.91;37.87;102932.84;5131278;27;19911;-72
2023/05/03 09:59:32;;;;;;;;;;;;;;;20.94;37.90;102935.28;5115737;27;19923;-71
2023/05/03 10:01:58;;;;;;;;;;;;;;;20.96;37.86;102918.91;5127906;27;19916;-71
2023/05/03 10:04:24;;;;;;;;;;;;;;;20.99;37.78;102929.47;5118200;27;20435;-72
2023/05/03 10:06:49;;;;;;;;;;;;;;;21.01;37.60;102930.19;5125739;27;19912;-71
2023/05/03 10:09:15;;;;;;;;;;;;;;;21.03;37.50;102928.22;5127476;27;20582;-71
2023/05/03 10:11:42;;;;;;;;;;;;;;;21.04;37.42;102924.53;5116163;27;19911;-71
2023/05/03 10:14:07;;;;;;;;;;;;;;;21.07;37.42;102934.19;5126543;27;19991;-71
2023/05/03 10:16:34;;;;;;;;;;;;;;;21.08;37.46;102934.09;5135693;27;20012;-72
2023/05/03 10:19:05;;;;;;;;;;;;;;;21.10;37.59;102934.78;5112789;27;20284;-71
2023/05/03 10:21:37;;;;;;;;;;;;;;;21.13;37.32;102937.22;5132374;27;19935;-71
2023/05/03 10:24:08;;;;;;;;;;;;;;;21.15;37.25;102928.97;5115153;28;19915;-71
2023/05/03 10:26:33;;;;;;;;;;;;;;;21.17;37.37;102922.44;5134220;27;19919;-71
2023/05/03 10:28:59;;;;;;;;;;;;;;;21.18;37.68;102921.44;5129643;27;19916;-75
2023/05/03 10:31:43;;;;;;;;;;;;;;;21.20;37.84;102927.59;5133494;27;19915;-73
2023/05/03 10:34:24;;;;;;;;;;;;;;;21.23;38.31;102929.16;5127896;27;19919;-72
2023/05/03 10:36:52;;;;;;;;;;;;;;;21.27;38.77;102927.03;5138740;27;20367;-73
2023/05/03 10:39:17;;;;;;;;;;;;;;;21.30;38.97;102910.53;5134527;27;19934;-72
2023/05/03 10:41:43;;;;;;;;;;;;;;;21.31;39.60;102904.13;5131538;27;20640;-72
2023/05/03 10:44:28;;;;;;;;;;;;;;;21.34;40.21;102906.59;5121069;27;20356;-72
2023/05/03 10:46:53;;;;;;;;;;;;;;;21.35;40.32;102906.47;5134112;27;19919;-72
2023/05/03 10:49:22;;;;;;;;;;;;;;;21.38;40.18;102906.19;5117195;27;19920;-69
2023/05/03 10:51:47;;;;;;;;;;;;;;;21.41;39.87;102907.78;5129282;27;19981;-72
2023/05/03 10:54:12;;;;;;;;;;;;;;;21.43;39.93;102900.38;5131274;27;19990;-70
2023/05/03 10:56:48;;;;;;;;;;;;;;;21.44;39.88;102900.22;5120258;27;19912;-70
2023/05/03 10:59:13;;;;;;;;;;;;;;;21.46;39.72;102900.97;5134989;27;19912;-70
2023/05/03 11:01:38;;;;;;;;;;;;;;;21.49;39.79;102901.66;5132538;27;19961;-70
2023/05/03 11:04:07;;;;;;;;;;;;;;;21.51;40.07;102899.69;5138157;27;19915;-70
2023/05/03 11:06:33;;;;;;;;;;;;;;;21.52;40.18;102899.53;5133647;27;19926;-70
2023/05/03 11:08:59;;;;;;;;;;;;;;;21.54;40.06;102900.28;5130275;27;19937;-70
2023/05/03 11:11:24;;;;;;;;;;;;;;;21.55;40.12;102888.44;5135670;27;19912;-71
2023/05/03 11:13:49;;;;;;;;;;;;;;;21.56;39.91;102879.31;5131479;27;19960;-70
2023/05/03 11:16:14;;;;;;;;;;;;;;;21.58;39.54;102881.88;5132179;27;20391;-70
2023/05/03 11:18:40;;;;;;;;;;;;;;;21.60;39.65;102880.75;5128566;27;20007;-69
2023/05/03 11:21:06;;;;;;;;;;;;;;;21.61;39.54;102877.06;5131389;27;19998;-69
2023/05/03 11:23:31;;;;;;;;;;;;;;;21.63;39.52;102880.50;5130058;27;19959;-69
2023/05/03 11:25:56;;;;;;;;;;;;;;;21.64;39.79;102879.50;5132851;27;19915;-69
2023/05/03 11:28:22;;;;;;;;;;;;;;;21.66;39.49;102880.22;5129597;27;19915;-69
2023/05/03 11:30:47;;;;;;;;;;;;;;;21.68;39.43;102869.25;5132098;27;19930;-70
2023/05/03 11:33:12;;;;;;;;;;;;;;;21.69;39.29;102874.50;5135583;27;20015;-70
2023/05/03 11:35:37;;;;;;;;;;;;;;;21.72;39.49;102873.38;5129535;27;19920;-70
2023/05/03 11:38:03;;;;;;;;;;;;;;;21.74;39.06;102859.69;5136674;27;19912;-70
2023/05/03 11:40:28;;;;;;;;;;;;;;;21.75;39.12;102872.22;5128305;27;19911;-70
2023/05/03 11:42:57;;;;;;;;;;;;;;;21.77;39.05;102864.84;5129869;27;19915;-68
2023/05/03 11:45:23;;;;;;;;;;;;;;;21.78;38.83;102864.69;5131074;28;20010;-69
2023/05/03 11:47:49;;;;;;;;;;;;;;;21.79;39.24;102858.31;5132594;27;19918;-69
2023/05/03 11:50:15;;;;;;;;;;;;;;;21.81;38.92;102853.59;5133944;27;19947;-69
2023/05/03 11:52:40;;;;;;;;;;;;;;;21.82;39.09;102852.59;5131024;27;19966;-69
2023/05/03 11:55:06;;;;;;;;;;;;;;;21.83;38.96;102854.28;5112482;28;20280;-69
2023/05/03 11:57:31;;;;;;;;;;;;;;;21.84;39.16;102856.03;5129948;28;19919;-69
2023/05/03 12:00:08;;;;;;;;;;;;;;;21.71;38.94;102823.81;5136645;28;19935;-69
2023/05/03 12:02:33;;;;;;;;;;;;;;;21.87;38.87;102844.88;5124243;28;20010;-69
2023/05/03 12:04:58;;;;;;;;;;;;;;;21.88;39.21;102851.19;5117163;28;19911;-69
2023/05/03 12:07:23;;;;;;;;;;;;;;;21.89;39.23;102844.75;5112256;28;19976;-68
2023/05/03 12:09:49;;;;;;;;;;;;;;;21.89;39.09;102842.06;5126041;28;19922;-69
2023/05/03 12:12:18;;;;;;;;;;;;;;;21.90;39.21;102846.47;5100862;28;19937;-69
2023/05/03 12:14:57;;;;;;;;;;;;;;;21.90;39.28;102844.59;5125095;28;19959;-69
2023/05/03 12:17:38;;;;;;;;;;;;;;;21.90;39.23;102843.75;5129157;28;19976;-68
2023/05/03 12:20:15;;;;;;;;;;;;;;;21.92;39.19;102830.94;5134592;28;19915;-68
2023/05/03 12:22:40;;;;;;;;;;;;;;;21.92;39.32;102818.25;5111425;28;19923;-68
2023/05/03 12:25:06;;;;;;;;;;;;;;;21.93;39.20;102814.53;5124132;28;19916;-69
2023/05/03 12:27:31;;;;;;;;;;;;;;;21.94;39.02;102816.25;5135603;28;19919;-69
2023/05/03 12:29:57;;;;;;;;;;;;;;;21.95;39.23;102820.66;5127362;28;19916;-68